createdAt,value
2023-01-31T00:01:28.583Z,99.90
2023-01-31T00:03:57.582Z,99.90
2023-01-31T00:06:33.152Z,99.90
2023-01-31T00:09:01.203Z,99.90
2023-01-31T00:11:29.599Z,99.90
2023-01-31T00:13:57.457Z,99.90
2023-01-31T00:16:24.153Z,99.90
2023-01-31T00:18:50.970Z,99.90
2023-01-31T00:21:24.532Z,99.90
2023-01-31T00:23:53.164Z,99.90
2023-01-31T00:26:29.793Z,99.90
2023-01-31T00:28:58.130Z,99.90
2023-01-31T00:31:26.873Z,99.90
2023-01-31T00:33:55.393Z,99.90
2023-01-31T00:36:25.023Z,99.90
2023-01-31T00:38:54.078Z,99.90
2023-01-31T00:41:22.298Z,99.90
2023-01-31T00:43:50.010Z,99.90
2023-01-31T00:46:17.370Z,99.90
2023-01-31T00:48:44.181Z,99.90
2023-01-31T00:51:10.906Z,99.90
2023-01-31T00:53:38.661Z,99.90
2023-01-31T00:56:08.410Z,99.90
2023-01-31T00:58:35.870Z,99.90
2023-01-31T01:01:12.763Z,99.90
2023-01-31T01:03:40.546Z,99.90
2023-01-31T01:06:08.714Z,99.90
2023-01-31T01:08:37.231Z,99.90
2023-01-31T01:11:11.834Z,99.90
2023-01-31T01:13:39.154Z,99.90
2023-01-31T01:16:19.416Z,99.90
2023-01-31T01:18:48.216Z,99.90
2023-01-31T01:21:20.563Z,99.90
2023-01-31T01:23:47.781Z,99.90
2023-01-31T01:26:16.599Z,99.90
2023-01-31T01:28:43.689Z,99.90
2023-01-31T01:31:12.238Z,99.90
2023-01-31T01:33:39.115Z,99.90
2023-01-31T01:36:08.636Z,99.90
2023-01-31T01:38:37.055Z,99.90
2023-01-31T01:41:04.995Z,99.90
2023-01-31T01:43:52.984Z,99.90
2023-01-31T01:46:28.256Z,99.90
2023-01-31T01:49:01.313Z,99.90
2023-01-31T01:51:32.215Z,99.90
2023-01-31T01:54:01.736Z,99.90
2023-01-31T01:56:32.689Z,99.90
2023-01-31T01:59:22.497Z,99.90
2023-01-31T02:01:50.596Z,99.90
2023-01-31T02:04:22.567Z,99.90
2023-01-31T02:06:49.972Z,99.90
2023-01-31T02:09:33.081Z,99.90
2023-01-31T02:11:59.975Z,99.90
2023-01-31T02:14:27.391Z,99.90
2023-01-31T02:16:54.195Z,99.90
2023-01-31T02:19:53.913Z,99.90
2023-01-31T02:22:38.312Z,99.90
2023-01-31T02:25:22.442Z,99.90
2023-01-31T02:28:16.990Z,99.90
2023-01-31T02:30:49.577Z,99.90
2023-01-31T02:33:54.146Z,99.90
2023-01-31T02:36:36.857Z,99.90
2023-01-31T02:39:46.501Z,99.90
2023-01-31T02:42:38.539Z,99.90
2023-01-31T02:45:27.995Z,99.90
2023-01-31T02:48:13.526Z,99.90
2023-01-31T02:50:59.001Z,99.90
2023-01-31T02:53:35.443Z,99.90
2023-01-31T02:56:20.399Z,99.90
2023-01-31T02:58:56.422Z,99.90
2023-01-31T03:01:29.074Z,99.90
2023-01-31T03:04:03.238Z,99.90
2023-01-31T03:06:36.625Z,99.90
2023-01-31T03:09:25.362Z,99.90
2023-01-31T03:12:10.564Z,99.90
2023-01-31T03:14:43.130Z,99.90
2023-01-31T03:17:32.908Z,99.90
2023-01-31T03:20:11.448Z,99.90
2023-01-31T03:22:42.189Z,99.90
2023-01-31T03:25:12.046Z,99.90
2023-01-31T03:27:43.681Z,99.90
2023-01-31T03:30:17.483Z,99.90
2023-01-31T03:32:51.581Z,99.90
2023-01-31T03:35:22.113Z,99.90
2023-01-31T03:38:15.393Z,99.90
2023-01-31T03:40:53.080Z,99.90
2023-01-31T03:43:42.264Z,99.90
2023-01-31T03:46:24.158Z,99.90
2023-01-31T03:48:54.835Z,99.90
2023-01-31T03:51:28.764Z,99.90
2023-01-31T03:54:01.494Z,99.90
2023-01-31T03:56:34.071Z,99.90
2023-01-31T03:59:07.147Z,99.90
2023-01-31T04:01:38.549Z,99.90
2023-01-31T04:04:14.978Z,99.90
2023-01-31T04:06:42.091Z,99.90
2023-01-31T04:09:08.844Z,99.90
2023-01-31T04:11:42.456Z,99.90
2023-01-31T04:14:10.241Z,99.90
2023-01-31T04:16:36.943Z,99.90
2023-01-31T04:19:03.710Z,99.90
2023-01-31T04:21:30.509Z,99.90
2023-01-31T04:23:57.465Z,99.90
2023-01-31T04:26:24.275Z,99.90
2023-01-31T04:28:51.721Z,99.90
2023-01-31T04:31:19.573Z,99.90
2023-01-31T04:33:46.353Z,99.90
2023-01-31T04:36:13.216Z,99.90
2023-01-31T04:38:40.172Z,99.90
2023-01-31T04:41:06.911Z,99.90
2023-01-31T04:43:33.654Z,99.90
2023-01-31T04:46:00.460Z,99.90
2023-01-31T04:48:29.022Z,99.90
2023-01-31T04:50:56.487Z,99.90
2023-01-31T04:53:23.213Z,99.90
2023-01-31T04:55:49.899Z,99.90
2023-01-31T04:58:16.739Z,99.90
2023-01-31T05:00:45.338Z,99.90
2023-01-31T05:03:12.939Z,99.90
2023-01-31T05:05:40.089Z,99.90
2023-01-31T05:08:07.005Z,99.90
2023-01-31T05:10:36.375Z,99.90
2023-01-31T05:13:03.360Z,99.90
2023-01-31T05:15:30.249Z,99.90
2023-01-31T05:18:02.898Z,99.90
2023-01-31T05:20:36.595Z,99.90
2023-01-31T05:23:03.872Z,99.90
2023-01-31T05:25:31.649Z,99.90
2023-01-31T05:27:58.734Z,99.90
2023-01-31T05:30:25.617Z,99.90
2023-01-31T05:32:52.583Z,99.90
2023-01-31T05:35:20.253Z,99.90
2023-01-31T05:37:47.113Z,99.90
2023-01-31T05:40:16.801Z,99.90
2023-01-31T05:42:43.838Z,99.90
2023-01-31T05:45:11.639Z,99.90
2023-01-31T05:47:38.532Z,99.90
2023-01-31T05:50:05.814Z,99.90
2023-01-31T05:52:32.529Z,99.90
2023-01-31T05:54:59.309Z,99.90
2023-01-31T05:57:26.424Z,99.90
2023-01-31T05:59:53.173Z,99.90
2023-01-31T06:02:19.869Z,99.90
2023-01-31T06:04:47.296Z,99.90
2023-01-31T06:07:13.991Z,99.90
2023-01-31T06:09:42.296Z,99.90
2023-01-31T06:12:17.016Z,99.90
2023-01-31T06:14:44.846Z,99.90
2023-01-31T06:17:11.824Z,99.90
2023-01-31T06:19:38.609Z,99.90
2023-01-31T06:22:05.874Z,99.90
2023-01-31T06:24:32.999Z,99.90
2023-01-31T06:26:59.832Z,99.90
2023-01-31T06:29:26.555Z,99.90
2023-01-31T06:31:53.771Z,99.90
2023-01-31T06:34:20.858Z,99.90
2023-01-31T06:36:47.609Z,99.90
2023-01-31T06:39:14.877Z,99.90
2023-01-31T06:41:41.753Z,99.90
2023-01-31T06:44:08.540Z,99.90
2023-01-31T06:46:35.683Z,99.90
2023-01-31T06:49:02.553Z,99.90
2023-01-31T06:51:29.350Z,99.90
2023-01-31T06:53:56.679Z,99.90
2023-01-31T06:56:23.891Z,99.90
2023-01-31T06:58:50.622Z,99.90
2023-01-31T07:01:17.486Z,99.90
2023-01-31T07:03:44.691Z,99.90
2023-01-31T07:06:11.986Z,99.90
2023-01-31T07:08:38.726Z,99.90
2023-01-31T07:11:05.881Z,99.90
2023-01-31T07:13:33.038Z,99.90
2023-01-31T07:15:59.914Z,99.90
2023-01-31T07:18:26.646Z,99.90
2023-01-31T07:20:53.626Z,99.90
2023-01-31T07:23:20.572Z,99.90
2023-01-31T07:25:47.354Z,99.90
2023-01-31T07:28:14.044Z,99.90
2023-01-31T07:30:43.793Z,99.90
2023-01-31T07:33:11.706Z,99.90
2023-01-31T07:35:38.482Z,99.90
2023-01-31T07:38:05.526Z,99.90
2023-01-31T07:40:32.450Z,99.90
2023-01-31T07:43:00.260Z,99.90
2023-01-31T07:45:27.553Z,99.90
2023-01-31T07:47:58.472Z,99.90
2023-01-31T07:50:27.239Z,99.90
2023-01-31T07:52:54.039Z,99.90
2023-01-31T07:55:21.138Z,99.90
2023-01-31T07:57:48.499Z,99.90
2023-01-31T08:00:34.228Z,99.90
2023-01-31T08:03:19.633Z,99.90
2023-01-31T08:05:47.694Z,99.90
2023-01-31T08:08:14.719Z,99.90
2023-01-31T08:10:41.539Z,99.90
2023-01-31T08:13:08.340Z,99.90
2023-01-31T08:15:35.036Z,99.90
2023-01-31T08:18:03.372Z,99.90
2023-01-31T08:20:32.075Z,99.90
2023-01-31T08:22:59.968Z,99.90
2023-01-31T08:25:29.280Z,99.90
2023-01-31T08:28:00.239Z,99.90
2023-01-31T08:30:28.458Z,99.90
2023-01-31T08:32:55.817Z,99.90
2023-01-31T08:35:22.907Z,99.90
2023-01-31T08:37:49.661Z,99.90
2023-01-31T08:40:16.829Z,99.90
2023-01-31T08:42:43.553Z,99.90
2023-01-31T08:45:10.788Z,99.90
2023-01-31T08:47:38.811Z,99.90
2023-01-31T08:50:10.895Z,99.90
2023-01-31T08:52:42.616Z,99.90
2023-01-31T08:55:13.822Z,99.90
2023-01-31T08:57:52.629Z,99.90
2023-01-31T09:00:24.702Z,99.90
2023-01-31T09:02:53.200Z,99.90
2023-01-31T09:05:20.459Z,99.90
2023-01-31T09:07:47.542Z,99.90
2023-01-31T09:10:14.362Z,99.90
2023-01-31T09:12:41.102Z,99.90
2023-01-31T09:15:08.510Z,99.90
2023-01-31T09:17:35.382Z,99.90
2023-01-31T09:20:06.590Z,99.90
2023-01-31T09:22:34.643Z,95.90
2023-01-31T09:25:02.352Z,94.90
2023-01-31T09:27:29.790Z,95.00
2023-01-31T09:29:56.653Z,94.40
2023-01-31T09:32:23.457Z,95.20
2023-01-31T09:34:50.285Z,94.10
2023-01-31T09:37:17.285Z,95.30
2023-01-31T09:39:44.074Z,93.90
2023-01-31T09:42:22.183Z,94.10
2023-01-31T09:45:02.902Z,92.80
2023-01-31T09:47:36.277Z,92.50
2023-01-31T09:50:05.990Z,92.30
2023-01-31T09:52:33.273Z,91.60
2023-01-31T09:55:00.351Z,90.20
2023-01-31T09:57:30.718Z,90.90
2023-01-31T10:00:25.901Z,90.70
2023-01-31T10:03:00.704Z,91.40
2023-01-31T10:05:30.565Z,91.50
2023-01-31T10:08:36.105Z,91.60
2023-01-31T10:11:11.564Z,93.00
2023-01-31T10:13:57.846Z,92.60
2023-01-31T10:16:36.345Z,93.10
2023-01-31T10:19:08.442Z,92.70
2023-01-31T10:21:42.417Z,93.50
2023-01-31T10:24:18.860Z,93.40
2023-01-31T10:26:48.373Z,93.20
2023-01-31T10:29:29.501Z,93.20
2023-01-31T10:32:01.922Z,92.70
2023-01-31T10:34:44.475Z,94.00
2023-01-31T10:37:30.209Z,93.20
2023-01-31T10:40:15.244Z,94.40
2023-01-31T10:42:46.035Z,94.30
2023-01-31T10:45:18.505Z,94.40
2023-01-31T10:48:01.230Z,94.80
2023-01-31T10:51:09.969Z,94.00
2023-01-31T10:54:06.081Z,94.40
2023-01-31T10:56:35.800Z,94.60
2023-01-31T10:59:17.245Z,95.50
2023-01-31T11:01:44.061Z,95.80
2023-01-31T11:04:43.228Z,95.40
2023-01-31T11:07:10.831Z,95.50
2023-01-31T11:09:41.005Z,95.20
2023-01-31T11:12:08.935Z,95.90
2023-01-31T11:14:36.816Z,96.80
2023-01-31T11:17:06.702Z,97.00
2023-01-31T11:19:41.067Z,97.80
2023-01-31T11:22:09.320Z,97.50
2023-01-31T11:24:38.763Z,97.80
2023-01-31T11:27:07.325Z,97.20
2023-01-31T11:29:38.137Z,98.00
2023-01-31T11:32:12.867Z,98.20
2023-01-31T11:34:40.979Z,98.30
2023-01-31T11:37:18.704Z,98.80
2023-01-31T11:39:56.641Z,98.60
2023-01-31T11:42:23.761Z,99.10
2023-01-31T11:45:18.730Z,98.60
2023-01-31T11:47:58.182Z,98.30
2023-01-31T11:50:40.847Z,98.50
2023-01-31T11:53:18.858Z,98.90
2023-01-31T11:55:47.786Z,97.90
2023-01-31T11:58:26.122Z,96.20
2023-01-31T12:00:59.173Z,94.30
2023-01-31T12:03:27.762Z,94.60
2023-01-31T12:06:29.072Z,95.30
2023-01-31T12:08:58.036Z,93.20
2023-01-31T12:11:33.433Z,92.70
2023-01-31T12:14:16.516Z,91.50
2023-01-31T12:16:44.898Z,92.60
2023-01-31T12:19:11.652Z,93.90
2023-01-31T12:21:56.481Z,94.30
2023-01-31T12:24:32.114Z,94.10
2023-01-31T12:27:21.622Z,92.00
2023-01-31T12:30:03.449Z,92.20
2023-01-31T12:33:15.418Z,92.40
2023-01-31T12:36:07.644Z,93.40
2023-01-31T12:38:46.305Z,93.70
2023-01-31T12:41:18.882Z,92.30
2023-01-31T12:44:16.778Z,91.30
2023-01-31T12:47:24.085Z,92.10
2023-01-31T12:49:53.605Z,91.50
2023-01-31T12:52:46.749Z,92.10
2023-01-31T12:55:25.605Z,93.50
2023-01-31T12:58:15.750Z,93.10
2023-01-31T13:00:48.802Z,92.60
2023-01-31T13:03:52.298Z,93.20
2023-01-31T13:06:26.369Z,92.40
2023-01-31T13:09:08.087Z,92.40
2023-01-31T13:11:41.095Z,92.70
2023-01-31T13:14:23.079Z,92.40
2023-01-31T13:16:55.049Z,92.70
2023-01-31T13:19:45.229Z,93.40
2023-01-31T13:22:22.086Z,93.60
2023-01-31T13:24:58.251Z,93.00
2023-01-31T13:27:40.930Z,93.40
2023-01-31T13:30:21.656Z,93.10
2023-01-31T13:32:55.243Z,94.10
2023-01-31T13:35:41.933Z,93.30
2023-01-31T13:38:15.726Z,93.90
2023-01-31T13:40:55.051Z,93.70
2023-01-31T13:43:22.025Z,93.70
2023-01-31T13:46:04.395Z,93.50
2023-01-31T13:48:56.220Z,93.80
2023-01-31T13:51:25.133Z,93.50
2023-01-31T13:54:04.309Z,94.30
2023-01-31T13:56:35.290Z,93.60
2023-01-31T13:59:02.812Z,93.60
2023-01-31T14:01:34.594Z,93.50
2023-01-31T14:04:14.734Z,93.20
2023-01-31T14:06:56.445Z,92.80
2023-01-31T14:09:33.664Z,92.50
2023-01-31T14:12:07.282Z,92.60
2023-01-31T14:14:41.622Z,92.30
2023-01-31T14:17:34.534Z,92.20
2023-01-31T14:20:05.639Z,91.90
2023-01-31T14:22:39.672Z,92.20
2023-01-31T14:25:16.000Z,91.90
2023-01-31T14:27:56.522Z,91.50
2023-01-31T14:30:37.440Z,91.00
2023-01-31T14:33:06.311Z,91.60
2023-01-31T14:35:57.303Z,92.00
2023-01-31T14:38:24.035Z,91.30
2023-01-31T14:41:19.543Z,91.80
2023-01-31T14:44:21.208Z,91.60
2023-01-31T14:47:09.574Z,92.30
2023-01-31T14:50:10.333Z,92.80
2023-01-31T14:52:55.178Z,93.20
2023-01-31T14:55:36.986Z,93.80
2023-01-31T14:58:06.455Z,93.10
2023-01-31T15:00:36.736Z,93.30
2023-01-31T15:03:20.595Z,93.30
2023-01-31T15:06:12.019Z,93.70
2023-01-31T15:08:42.119Z,93.40
2023-01-31T15:11:14.115Z,94.00
2023-01-31T15:13:53.935Z,93.60
2023-01-31T15:16:31.571Z,94.00
2023-01-31T15:19:09.453Z,93.80
2023-01-31T15:21:55.711Z,94.10
2023-01-31T15:24:32.335Z,94.30
2023-01-31T15:27:01.045Z,93.80
2023-01-31T15:29:52.825Z,94.40
2023-01-31T15:32:29.793Z,94.80
2023-01-31T15:35:04.341Z,94.50
2023-01-31T15:37:35.217Z,94.90
2023-01-31T15:40:24.043Z,94.40
2023-01-31T15:42:50.803Z,94.90
2023-01-31T15:45:25.251Z,95.00
2023-01-31T15:47:59.947Z,95.10
2023-01-31T15:50:28.568Z,94.80
2023-01-31T15:52:57.187Z,95.80
2023-01-31T15:55:24.357Z,96.20
2023-01-31T15:57:58.311Z,96.20
2023-01-31T16:00:29.874Z,95.50
2023-01-31T16:03:02.988Z,96.20
2023-01-31T16:05:40.005Z,95.20
2023-01-31T16:08:36.185Z,95.50
2023-01-31T16:11:05.990Z,95.50
2023-01-31T16:13:38.790Z,94.60
2023-01-31T16:16:07.301Z,95.60
2023-01-31T16:18:35.764Z,95.50
2023-01-31T16:21:15.966Z,95.20
2023-01-31T16:23:43.253Z,94.40
2023-01-31T16:26:23.079Z,94.70
2023-01-31T16:28:57.901Z,95.10
2023-01-31T16:31:27.873Z,95.60
2023-01-31T16:34:00.223Z,95.00
2023-01-31T16:36:52.317Z,95.30
2023-01-31T16:39:37.401Z,96.10
2023-01-31T16:42:23.737Z,95.50
2023-01-31T16:44:51.324Z,95.80
2023-01-31T16:47:33.494Z,96.10
2023-01-31T16:50:32.747Z,96.90
2023-01-31T16:53:25.953Z,96.30
2023-01-31T16:56:14.399Z,96.40
2023-01-31T16:58:55.658Z,97.20
2023-01-31T17:01:31.932Z,97.90
2023-01-31T17:04:19.332Z,97.40
2023-01-31T17:06:51.202Z,98.20
2023-01-31T17:09:22.160Z,97.90
2023-01-31T17:11:48.891Z,98.30
2023-01-31T17:14:15.660Z,98.70
2023-01-31T17:16:42.351Z,98.40
2023-01-31T17:19:09.103Z,98.50
2023-01-31T17:21:40.841Z,98.60
2023-01-31T17:24:16.210Z,98.40
2023-01-31T17:26:43.369Z,99.00
2023-01-31T17:29:10.309Z,99.30
2023-01-31T17:31:37.474Z,98.80
2023-01-31T17:34:05.716Z,98.90
2023-01-31T17:36:32.409Z,99.20
2023-01-31T17:38:59.128Z,99.00
2023-01-31T17:41:25.814Z,98.70
2023-01-31T17:43:52.870Z,98.60
2023-01-31T17:46:19.866Z,99.10
2023-01-31T17:48:46.725Z,99.60
2023-01-31T17:51:14.422Z,99.00
2023-01-31T17:53:49.398Z,99.40
2023-01-31T17:56:18.044Z,98.70
2023-01-31T17:58:44.955Z,99.70
2023-01-31T18:01:13.937Z,99.30
2023-01-31T18:03:41.635Z,99.10
2023-01-31T18:06:09.384Z,99.40
2023-01-31T18:08:36.779Z,99.00
2023-01-31T18:11:08.893Z,99.10
2023-01-31T18:13:37.930Z,99.40
2023-01-31T18:16:18.126Z,99.90
2023-01-31T18:18:44.914Z,99.70
2023-01-31T18:21:13.250Z,99.90
2023-01-31T18:23:40.108Z,99.90
2023-01-31T18:26:08.812Z,99.90
2023-01-31T18:28:36.077Z,99.90
2023-01-31T18:31:10.584Z,99.60
2023-01-31T18:33:38.100Z,99.90
2023-01-31T18:36:06.224Z,99.90
2023-01-31T18:38:33.131Z,99.90
2023-01-31T18:41:02.721Z,99.90
2023-01-31T18:43:29.758Z,99.90
2023-01-31T18:45:56.534Z,99.90
2023-01-31T18:48:23.232Z,99.90
2023-01-31T18:50:49.917Z,99.90
2023-01-31T18:53:16.610Z,99.90
2023-01-31T18:55:43.284Z,99.90
2023-01-31T18:58:10.005Z,99.90
2023-01-31T19:00:36.742Z,99.90
2023-01-31T19:03:03.765Z,99.90
2023-01-31T19:05:30.602Z,99.90
2023-01-31T19:07:57.574Z,99.90
2023-01-31T19:10:24.278Z,99.90
2023-01-31T19:12:50.991Z,99.90
2023-01-31T19:15:17.810Z,99.90
2023-01-31T19:17:44.472Z,99.90
2023-01-31T19:20:12.045Z,99.90
2023-01-31T19:22:38.799Z,99.90
2023-01-31T19:25:09.058Z,99.90
2023-01-31T19:27:35.822Z,99.90
2023-01-31T19:30:02.666Z,99.90
2023-01-31T19:32:31.014Z,99.90
2023-01-31T19:34:57.704Z,99.90
2023-01-31T19:37:24.428Z,99.90
2023-01-31T19:39:51.379Z,99.90
2023-01-31T19:42:18.296Z,99.90
2023-01-31T19:44:45.023Z,99.90
2023-01-31T19:47:11.806Z,99.90
2023-01-31T19:49:38.532Z,99.90
2023-01-31T19:52:05.321Z,99.90
2023-01-31T19:54:32.064Z,99.90
2023-01-31T19:56:58.789Z,99.90
2023-01-31T19:59:25.536Z,99.90
2023-01-31T20:01:52.301Z,99.90
2023-01-31T20:04:19.295Z,99.90
2023-01-31T20:06:46.122Z,99.90
2023-01-31T20:09:19.887Z,99.90
2023-01-31T20:11:46.839Z,99.90
2023-01-31T20:14:13.743Z,99.90
2023-01-31T20:16:40.532Z,99.90
2023-01-31T20:19:07.666Z,99.90
2023-01-31T20:21:34.611Z,99.90
2023-01-31T20:24:01.355Z,99.90
2023-01-31T20:26:29.724Z,99.90
2023-01-31T20:28:56.724Z,99.90
2023-01-31T20:31:23.565Z,99.90
2023-01-31T20:33:54.948Z,99.90
2023-01-31T20:36:25.439Z,99.90
2023-01-31T20:38:52.643Z,99.90
2023-01-31T20:41:19.497Z,99.90
2023-01-31T20:43:46.249Z,99.90
2023-01-31T20:46:14.295Z,99.90
2023-01-31T20:48:42.997Z,99.90
2023-01-31T20:51:09.995Z,99.90
2023-01-31T20:53:37.212Z,99.90
2023-01-31T20:56:12.605Z,99.90
2023-01-31T20:58:40.997Z,99.90
2023-01-31T21:01:09.161Z,99.90
2023-01-31T21:03:36.898Z,99.90
2023-01-31T21:06:05.305Z,99.90
2023-01-31T21:08:32.412Z,99.90
2023-01-31T21:10:59.704Z,99.90
2023-01-31T21:13:31.487Z,99.90
2023-01-31T21:16:00.230Z,99.90
2023-01-31T21:18:28.618Z,99.90
2023-01-31T21:20:55.486Z,99.90
2023-01-31T21:23:22.657Z,99.90
2023-01-31T21:25:49.447Z,99.90
2023-01-31T21:28:16.223Z,99.90
2023-01-31T21:30:43.305Z,99.90
2023-01-31T21:33:10.090Z,99.90
2023-01-31T21:35:36.805Z,99.90
2023-01-31T21:38:03.566Z,99.90
2023-01-31T21:40:30.281Z,99.90
2023-01-31T21:42:57.008Z,99.90
2023-01-31T21:45:39.657Z,99.90
2023-01-31T21:48:27.697Z,99.90
2023-01-31T21:50:55.118Z,99.90
2023-01-31T21:53:22.066Z,99.90
2023-01-31T21:55:48.815Z,99.90
2023-01-31T21:58:15.755Z,99.90
2023-01-31T22:00:44.022Z,99.90
2023-01-31T22:03:11.226Z,99.90
2023-01-31T22:05:37.995Z,99.90
2023-01-31T22:08:04.947Z,99.90
2023-01-31T22:10:31.849Z,99.90
2023-01-31T22:12:58.535Z,99.90
2023-01-31T22:15:25.453Z,99.90
2023-01-31T22:17:52.749Z,99.90
2023-01-31T22:20:19.821Z,99.90
2023-01-31T22:22:48.536Z,99.90
2023-01-31T22:25:15.447Z,99.90
2023-01-31T22:27:42.228Z,99.90
2023-01-31T22:30:16.886Z,99.90
2023-01-31T22:32:43.937Z,99.90
2023-01-31T22:35:10.754Z,99.90
2023-01-31T22:37:37.449Z,99.90
2023-01-31T22:40:04.489Z,99.90
2023-01-31T22:42:31.208Z,99.90
2023-01-31T22:44:57.930Z,99.90
2023-01-31T22:47:24.984Z,99.90
2023-01-31T22:49:51.744Z,99.90
2023-01-31T22:52:18.541Z,99.90
2023-01-31T22:54:45.342Z,99.90
2023-01-31T22:57:12.833Z,99.90
2023-01-31T22:59:39.519Z,99.90
2023-01-31T23:02:06.513Z,99.90
2023-01-31T23:04:33.382Z,99.90
2023-01-31T23:07:00.127Z,99.90
2023-01-31T23:09:26.889Z,99.90
2023-01-31T23:11:53.559Z,99.90
2023-01-31T23:14:20.413Z,99.90
2023-01-31T23:17:05.647Z,99.90
2023-01-31T23:19:32.316Z,99.90
2023-01-31T23:21:58.992Z,99.90
2023-01-31T23:24:25.678Z,99.90
2023-01-31T23:26:54.413Z,99.90
2023-01-31T23:29:21.271Z,99.90
2023-01-31T23:31:48.117Z,99.90
2023-01-31T23:34:14.836Z,99.90
2023-01-31T23:36:41.584Z,99.90
2023-01-31T23:39:09.868Z,99.90
2023-01-31T23:41:36.605Z,99.90
2023-01-31T23:44:03.625Z,99.90
2023-01-31T23:46:30.470Z,99.90
2023-01-31T23:48:57.318Z,99.90
2023-01-31T23:51:24.050Z,99.90
2023-01-31T23:53:50.856Z,99.90
2023-01-31T23:56:17.541Z,99.90
2023-01-31T23:58:44.323Z,99.90
